Time,TemperatureF,DewpointF,PressureIn,WindDirection,WindDirectionDegrees,WindSpeedMPH,WindSpeedGustMPH,Humidity,HourlyPrecipIn,Conditions,Clouds,dailyrainin,SoftwareType,DateUTC
2013-02-13 00:06:00,52.5,52.2,29.66,East,90,4.7,-999.0,99,-99.99,,,0.00,Acu-Link.com,2013-02-13 05:06:00,
2013-02-13 00:22:00,52.5,52.2,29.65,NE,45,2.7,-999.0,99,-99.99,,,0.06,Acu-Link.com,2013-02-13 05:22:00,
2013-02-13 00:37:00,52.7,52.4,29.65,ENE,67,6.3,-999.0,99,-99.99,,,0.06,Acu-Link.com,2013-02-13 05:37:00,
2013-02-13 00:52:00,52.9,52.6,29.63,NE,45,5.3,-999.0,99,-99.99,,,0.07,Acu-Link.com,2013-02-13 05:52:00,
2013-02-13 01:07:00,53.2,52.9,29.62,NNE,22,2.7,-999.0,99,-99.99,,,0.16,Acu-Link.com,2013-02-13 06:07:00,
2013-02-13 01:23:00,53.6,53.3,29.63,ESE,112,2.2,-999.0,99,-99.99,,,0.19,Acu-Link.com,2013-02-13 06:23:00,
2013-02-13 01:38:00,53.8,53.5,29.62,ESE,112,4.2,-999.0,99,-99.99,,,0.28,Acu-Link.com,2013-02-13 06:38:00,
2013-02-13 01:53:00,54.0,53.7,29.62,NE,45,3.7,-999.0,99,-99.99,,,0.34,Acu-Link.com,2013-02-13 06:53:00,
2013-02-13 02:08:00,54.1,53.8,29.60,ESE,112,2.2,-999.0,99,-99.99,,,0.38,Acu-Link.com,2013-02-13 07:08:00,
2013-02-13 02:24:00,54.3,54.0,29.59,ESE,112,6.8,-999.0,99,-99.99,,,0.38,Acu-Link.com,2013-02-13 07:24:00,
2013-02-13 02:39:00,54.7,54.4,29.59,NE,45,2.7,-999.0,99,-99.99,,,0.39,Acu-Link.com,2013-02-13 07:39:00,
2013-02-13 02:54:00,55.0,54.7,29.58,ESE,112,6.3,-999.0,99,-99.99,,,0.40,Acu-Link.com,2013-02-13 07:54:00,
2013-02-13 03:10:00,55.0,54.7,29.57,ESE,112,8.3,-999.0,99,-99.99,,,0.40,Acu-Link.com,2013-02-13 08:10:00,
2013-02-13 03:25:00,56.3,52.8,29.56,East,90,2.7,-999.0,88,-99.99,,,0.40,Acu-Link.com,2013-02-13 08:25:00,
2013-02-13 03:40:00,56.3,52.8,29.55,ESE,112,6.3,-999.0,88,-99.99,,,0.47,Acu-Link.com,2013-02-13 08:40:00,
2013-02-13 03:56:00,56.3,52.8,29.55,East,90,5.3,-999.0,88,-99.99,,,0.56,Acu-Link.com,2013-02-13 08:56:00,
2013-02-13 04:15:00,56.3,52.8,29.54,East,90,6.3,-999.0,88,-99.99,,,0.56,Acu-Link.com,2013-02-13 09:15:00,
2013-02-13 04:30:00,56.3,52.8,29.55,East,90,2.2,-999.0,88,-99.99,,,0.57,Acu-Link.com,2013-02-13 09:30:00,
2013-02-13 04:46:00,56.3,52.8,29.55,East,90,2.7,-999.0,88,-99.99,,,0.58,Acu-Link.com,2013-02-13 09:46:00,
2013-02-13 05:01:00,56.3,52.8,29.55,ESE,112,3.2,-999.0,88,-99.99,,,0.60,Acu-Link.com,2013-02-13 10:01:00,
2013-02-13 05:16:00,56.3,52.8,29.54,SSE,157,1.1,-999.0,88,-99.99,,,0.61,Acu-Link.com,2013-02-13 10:16:00,
2013-02-13 05:31:00,56.3,52.8,29.53,ENE,67,3.2,-999.0,88,-99.99,,,0.64,Acu-Link.com,2013-02-13 10:31:00,
2013-02-13 05:46:00,56.3,55.7,29.54,South,180,0.0,-999.0,98,-99.99,,,0.64,Acu-Link.com,2013-02-13 10:46:00,
2013-02-13 06:02:00,56.3,56.0,29.54,NNW,337,0.0,-999.0,99,-99.99,,,0.64,Acu-Link.com,2013-02-13 11:02:00,
2013-02-13 06:17:00,56.3,56.0,29.54,NNE,22,0.0,-999.0,99,-99.99,,,0.64,Acu-Link.com,2013-02-13 11:17:00,
2013-02-13 06:32:00,56.5,56.2,29.55,NNW,337,1.7,-999.0,99,-99.99,,,0.66,Acu-Link.com,2013-02-13 11:32:00,
2013-02-13 06:47:00,56.1,55.8,29.57,West,270,1.1,-999.0,99,-99.99,,,0.66,Acu-Link.com,2013-02-13 11:47:00,
2013-02-13 07:03:00,56.1,55.8,29.55,North,0,1.7,-999.0,99,-99.99,,,0.66,Acu-Link.com,2013-02-13 12:03:00,
2013-02-13 07:18:00,55.9,55.6,29.56,North,0,0.0,-999.0,99,-99.99,,,0.66,Acu-Link.com,2013-02-13 12:18:00,
2013-02-13 07:33:00,55.8,55.5,29.56,WNW,292,2.7,-999.0,99,-99.99,,,0.66,Acu-Link.com,2013-02-13 12:33:00,
2013-02-13 07:48:00,55.4,55.1,29.57,WNW,292,2.7,-999.0,99,-99.99,,,0.66,Acu-Link.com,2013-02-13 12:48:00,
2013-02-13 08:04:00,55.4,55.1,29.58,West,270,1.7,-999.0,99,-99.99,,,0.66,Acu-Link.com,2013-02-13 13:04:00,
2013-02-13 08:19:00,56.3,56.0,29.57,East,90,0.0,-999.0,99,-99.99,,,0.66,Acu-Link.com,2013-02-13 13:19:00,
2013-02-13 08:34:00,57.2,56.9,29.58,ESE,112,0.0,-999.0,99,-99.99,,,0.66,Acu-Link.com,2013-02-13 13:34:00,
2013-02-13 08:49:00,57.4,57.1,29.59,South,180,1.7,-999.0,99,-99.99,,,0.66,Acu-Link.com,2013-02-13 13:49:00,
2013-02-13 09:05:00,58.3,58.0,29.59,ENE,67,1.1,-999.0,99,-99.99,,,0.66,Acu-Link.com,2013-02-13 14:05:00,
2013-02-13 09:20:00,58.8,58.5,29.59,ESE,112,3.2,-999.0,99,-99.99,,,0.66,Acu-Link.com,2013-02-13 14:20:00,
2013-02-13 09:35:00,59.0,58.7,29.58,SSW,202,1.7,-999.0,99,-99.99,,,0.66,Acu-Link.com,2013-02-13 14:35:00,
2013-02-13 09:50:00,59.7,59.4,29.59,SSE,157,1.7,-999.0,99,-99.99,,,0.66,Acu-Link.com,2013-02-13 14:50:00,
2013-02-13 10:06:00,60.8,60.5,29.59,WNW,292,3.7,-999.0,99,-99.99,,,0.66,Acu-Link.com,2013-02-13 15:06:00,
2013-02-13 10:21:00,63.0,62.7,29.59,West,270,4.7,-999.0,99,-99.99,,,0.66,Acu-Link.com,2013-02-13 15:21:00,
2013-02-13 10:36:00,63.7,63.4,29.59,West,270,4.7,-999.0,99,-99.99,,,0.66,Acu-Link.com,2013-02-13 15:36:00,
2013-02-13 10:51:00,64.9,64.6,29.59,West,270,4.2,-999.0,99,-99.99,,,0.66,Acu-Link.com,2013-02-13 15:51:00,
2013-02-13 11:07:00,66.0,65.4,29.58,WSW,247,1.7,-999.0,98,-99.99,,,0.66,Acu-Link.com,2013-02-13 16:07:00,
2013-02-13 11:22:00,67.1,66.2,29.57,WSW,247,4.2,-999.0,97,-99.99,,,0.66,Acu-Link.com,2013-02-13 16:22:00,
2013-02-13 11:37:00,67.8,66.6,29.57,West,270,4.2,-999.0,96,-99.99,,,0.66,Acu-Link.com,2013-02-13 16:37:00,
2013-02-13 11:53:00,68.7,67.2,29.56,SW,225,8.9,-999.0,95,-99.99,,,0.66,Acu-Link.com,2013-02-13 16:53:00,
2013-02-13 12:08:00,68.7,67.2,29.56,WSW,247,5.8,-999.0,95,-99.99,,,0.66,Acu-Link.com,2013-02-13 17:08:00,
2013-02-13 12:23:00,67.5,66.3,29.55,SW,225,1.7,-999.0,96,-99.99,,,0.66,Acu-Link.com,2013-02-13 17:23:00,
2013-02-13 12:39:00,68.5,67.0,29.53,NW,315,3.7,-999.0,95,-99.99,,,0.66,Acu-Link.com,2013-02-13 17:39:00,
2013-02-13 12:54:00,68.7,66.6,29.54,SW,225,2.7,-999.0,93,-99.99,,,0.66,Acu-Link.com,2013-02-13 17:54:00,
2013-02-13 13:09:00,69.4,67.3,29.52,NW,315,1.7,-999.0,93,-99.99,,,0.66,Acu-Link.com,2013-02-13 18:09:00,
2013-02-13 13:24:00,69.6,67.8,29.51,NNE,22,2.7,-999.0,94,-99.99,,,0.66,Acu-Link.com,2013-02-13 18:24:00,
2013-02-13 13:40:00,70.0,68.2,29.50,ENE,67,1.7,-999.0,94,-99.99,,,0.66,Acu-Link.com,2013-02-13 18:40:00,
2013-02-13 13:55:00,69.6,67.8,29.50,South,180,5.3,-999.0,94,-99.99,,,0.66,Acu-Link.com,2013-02-13 18:55:00,
2013-02-13 14:10:00,68.2,67.0,29.49,South,180,3.2,-999.0,96,-99.99,,,0.66,Acu-Link.com,2013-02-13 19:10:00,
2013-02-13 14:26:00,65.7,65.1,29.50,NNW,337,2.7,-999.0,98,-99.99,,,0.66,Acu-Link.com,2013-02-13 19:26:00,
2013-02-13 14:41:00,68.0,66.2,29.50,South,180,4.7,-999.0,94,-99.99,,,0.66,Acu-Link.com,2013-02-13 19:41:00,
2013-02-13 14:56:00,70.2,67.8,29.51,SSW,202,3.2,-999.0,92,-99.99,,,0.66,Acu-Link.com,2013-02-13 19:56:00,
2013-02-13 15:12:00,74.7,64.7,29.50,WSW,247,5.8,-999.0,71,-99.99,,,0.66,Acu-Link.com,2013-02-13 20:12:00,
2013-02-13 15:27:00,75.4,58.1,29.50,WSW,247,16.1,-999.0,55,-99.99,,,0.66,Acu-Link.com,2013-02-13 20:27:00,
2013-02-13 15:42:00,74.3,56.0,29.50,WSW,247,9.9,-999.0,53,-99.99,,,0.66,Acu-Link.com,2013-02-13 20:42:00,
2013-02-13 15:58:00,73.2,56.5,29.51,SSW,202,8.3,-999.0,56,-99.99,,,0.66,Acu-Link.com,2013-02-13 20:58:00,
2013-02-13 16:13:00,72.5,55.9,29.53,West,270,8.3,-999.0,56,-99.99,,,0.66,Acu-Link.com,2013-02-13 21:13:00,
2013-02-13 16:29:00,71.4,55.4,29.55,WSW,247,7.3,-999.0,57,-99.99,,,0.66,Acu-Link.com,2013-02-13 21:29:00,
2013-02-13 16:44:00,70.7,50.6,29.55,West,270,12.5,-999.0,49,-99.99,,,0.66,Acu-Link.com,2013-02-13 21:44:00,
2013-02-13 17:00:00,69.4,48.8,29.56,West,270,10.4,-999.0,48,-99.99,,,0.66,Acu-Link.com,2013-02-13 22:00:00,
2013-02-13 17:15:00,68.7,47.1,29.56,West,270,15.5,-999.0,46,-99.99,,,0.68,Acu-Link.com,2013-02-13 22:15:00,
2013-02-13 17:30:00,67.1,47.8,29.57,West,270,14.5,-999.0,50,-99.99,,,0.68,Acu-Link.com,2013-02-13 22:30:00,
2013-02-13 17:45:00,66.0,48.4,29.57,West,270,11.9,-999.0,53,-99.99,,,0.68,Acu-Link.com,2013-02-13 22:45:00,
2013-02-13 18:01:00,65.5,48.9,29.58,West,270,13.5,-999.0,55,-99.99,,,0.68,Acu-Link.com,2013-02-13 23:01:00,
2013-02-13 18:16:00,64.9,49.3,29.58,West,270,6.3,-999.0,57,-99.99,,,0.68,Acu-Link.com,2013-02-13 23:16:00,
2013-02-13 18:31:00,64.4,49.8,29.58,West,270,4.7,-999.0,59,-99.99,,,0.68,Acu-Link.com,2013-02-13 23:31:00,
2013-02-13 18:46:00,64.0,49.8,29.58,WSW,247,9.4,-999.0,60,-99.99,,,0.68,Acu-Link.com,2013-02-13 23:46:00,
2013-02-13 19:01:00,64.0,49.8,29.58,WSW,247,5.8,-999.0,60,-99.99,,,0.68,Acu-Link.com,2013-02-14 00:01:00,
2013-02-13 19:17:00,63.9,49.7,29.59,SW,225,4.2,-999.0,60,-99.99,,,0.68,Acu-Link.com,2013-02-14 00:17:00,
2013-02-13 19:32:00,63.7,49.6,29.58,WSW,247,7.3,-999.0,60,-99.99,,,0.68,Acu-Link.com,2013-02-14 00:32:00,
2013-02-13 19:47:00,63.9,48.8,29.58,WNW,292,7.8,-999.0,58,-99.99,,,0.68,Acu-Link.com,2013-02-14 00:47:00,
2013-02-13 20:03:00,63.9,48.8,29.60,West,270,10.9,-999.0,58,-99.99,,,0.68,Acu-Link.com,2013-02-14 01:03:00,
2013-02-13 20:18:00,63.5,48.9,29.60,West,270,9.4,-999.0,59,-99.99,,,0.68,Acu-Link.com,2013-02-14 01:18:00,
2013-02-13 20:33:00,63.3,48.7,29.59,West,270,11.9,-999.0,59,-99.99,,,0.68,Acu-Link.com,2013-02-14 01:33:00,
2013-02-13 20:48:00,62.6,48.5,29.59,WSW,247,15.5,-999.0,60,-99.99,,,0.68,Acu-Link.com,2013-02-14 01:48:00,
2013-02-13 21:04:00,61.2,49.3,29.65,West,270,20.7,-999.0,65,-99.99,,,0.68,Acu-Link.com,2013-02-14 02:04:00,
2013-02-13 21:19:00,58.1,51.3,29.63,West,270,7.3,-999.0,78,-99.99,,,0.68,Acu-Link.com,2013-02-14 02:19:00,
2013-02-13 21:34:00,55.9,51.1,29.62,West,270,10.4,-999.0,84,-99.99,,,0.68,Acu-Link.com,2013-02-14 02:34:00,
2013-02-13 21:49:00,54.7,50.6,29.66,West,270,15.5,-999.0,86,-99.99,,,0.68,Acu-Link.com,2013-02-14 02:49:00,
2013-02-13 22:05:00,54.1,50.3,29.66,SW,225,8.3,-999.0,87,-99.99,,,0.68,Acu-Link.com,2013-02-14 03:05:00,
2013-02-13 22:20:00,54.0,50.2,29.65,WSW,247,6.8,-999.0,87,-99.99,,,0.68,Acu-Link.com,2013-02-14 03:20:00,
2013-02-13 22:36:00,54.0,50.2,29.66,WSW,247,5.8,-999.0,87,-99.99,,,0.68,Acu-Link.com,2013-02-14 03:36:00,
2013-02-13 22:51:00,53.8,50.3,29.66,WNW,292,5.8,-999.0,88,-99.99,,,0.68,Acu-Link.com,2013-02-14 03:51:00,
2013-02-13 23:06:00,53.8,50.3,29.66,West,270,9.4,-999.0,88,-99.99,,,0.68,Acu-Link.com,2013-02-14 04:06:00,
2013-02-13 23:21:00,53.2,49.1,29.67,West,270,9.4,-999.0,86,-99.99,,,0.68,Acu-Link.com,2013-02-14 04:21:00,
2013-02-13 23:37:00,53.2,49.1,29.67,West,270,7.8,-999.0,86,-99.99,,,0.68,Acu-Link.com,2013-02-14 04:37:00,
2013-02-13 23:52:00,52.9,48.5,29.62,WNW,292,6.3,-999.0,85,-99.99,,,0.68,Acu-Link.com,2013-02-14 04:52:00,